createdAt,value
2022-10-08T00:00:49.652Z,66.40
2022-10-08T00:03:17.499Z,67.33
2022-10-08T00:05:44.233Z,66.17
2022-10-08T00:08:10.934Z,65.57
2022-10-08T00:10:37.467Z,67.02
2022-10-08T00:13:04.769Z,65.98
2022-10-08T00:15:36.868Z,67.67
2022-10-08T00:18:03.295Z,66.17
2022-10-08T00:20:29.635Z,66.34
2022-10-08T00:22:55.960Z,66.29
2022-10-08T00:25:22.287Z,65.84
2022-10-08T00:27:48.615Z,66.41
2022-10-08T00:30:14.954Z,66.05
2022-10-08T00:32:41.347Z,66.11
2022-10-08T00:35:08.073Z,66.57
2022-10-08T00:37:34.382Z,68.19
2022-10-08T00:40:00.710Z,66.50
2022-10-08T00:42:27.142Z,68.07
2022-10-08T00:44:55.293Z,66.22
2022-10-08T00:47:33.962Z,66.27
2022-10-08T00:50:11.891Z,66.86
2022-10-08T00:52:43.739Z,68.02
2022-10-08T00:55:13.983Z,66.59
2022-10-08T00:57:41.135Z,66.63
2022-10-08T01:00:28.683Z,67.57
2022-10-08T01:02:55.178Z,67.48
2022-10-08T01:05:43.040Z,67.32
2022-10-08T01:08:33.631Z,68.17
2022-10-08T01:11:20.128Z,68.76
2022-10-08T01:14:01.621Z,67.55
2022-10-08T01:16:41.455Z,67.73
2022-10-08T01:19:26.193Z,67.52
2022-10-08T01:22:19.338Z,67.91
2022-10-08T01:25:12.390Z,68.30
2022-10-08T01:27:45.643Z,68.62
2022-10-08T01:30:17.929Z,68.43
2022-10-08T01:32:53.002Z,67.30
2022-10-08T01:35:31.822Z,67.73
2022-10-08T01:38:02.995Z,67.00
2022-10-08T01:40:35.030Z,67.22
2022-10-08T01:43:05.027Z,67.11
2022-10-08T01:45:37.184Z,67.27
2022-10-08T01:48:08.935Z,68.22
2022-10-08T01:50:39.556Z,66.98
2022-10-08T01:53:11.650Z,68.30
2022-10-08T01:55:45.149Z,67.55
2022-10-08T01:58:20.852Z,68.51
2022-10-08T02:00:50.118Z,68.40
2022-10-08T02:03:16.664Z,70.11
2022-10-08T02:05:50.379Z,68.96
2022-10-08T02:08:16.797Z,69.30
2022-10-08T02:10:43.678Z,70.75
2022-10-08T02:13:11.283Z,71.12
2022-10-08T02:15:56.394Z,71.47
2022-10-08T02:18:42.517Z,70.67
2022-10-08T02:21:16.872Z,71.93
2022-10-08T02:24:06.539Z,69.89
2022-10-08T02:26:42.499Z,70.46
2022-10-08T02:29:23.635Z,71.00
2022-10-08T02:31:54.765Z,70.94
2022-10-08T02:34:25.461Z,70.67
2022-10-08T02:37:00.219Z,69.92
2022-10-08T02:39:29.036Z,70.64
2022-10-08T02:42:00.614Z,71.03
2022-10-08T02:44:34.232Z,69.96
2022-10-08T02:47:04.559Z,70.12
2022-10-08T02:49:39.431Z,69.41
2022-10-08T02:52:09.648Z,69.81
2022-10-08T02:54:38.673Z,70.58
2022-10-08T02:57:09.621Z,70.82
2022-10-08T02:59:36.890Z,69.55
2022-10-08T03:02:05.371Z,70.70
2022-10-08T03:04:34.146Z,69.49
2022-10-08T03:07:00.943Z,69.40
2022-10-08T03:09:32.662Z,70.52
2022-10-08T03:12:00.121Z,70.73
2022-10-08T03:14:27.376Z,69.04
2022-10-08T03:16:54.284Z,70.50
2022-10-08T03:19:21.408Z,69.79
2022-10-08T03:21:52.530Z,69.97
2022-10-08T03:24:18.979Z,70.76
2022-10-08T03:26:45.339Z,71.32
2022-10-08T03:29:11.718Z,69.93
2022-10-08T03:31:38.173Z,70.01
2022-10-08T03:34:05.255Z,70.90
2022-10-08T03:36:31.590Z,70.47
2022-10-08T03:38:57.982Z,69.37
2022-10-08T03:41:25.433Z,70.44
2022-10-08T03:43:51.852Z,69.63
2022-10-08T03:46:18.328Z,70.11
2022-10-08T03:48:48.489Z,70.10
2022-10-08T03:51:14.995Z,70.24
2022-10-08T03:53:42.606Z,70.24
2022-10-08T03:56:14.870Z,69.71
2022-10-08T03:58:41.742Z,71.04
2022-10-08T04:01:12.472Z,71.06
2022-10-08T04:03:39.223Z,70.45
2022-10-08T04:06:05.787Z,69.81
2022-10-08T04:08:33.408Z,70.56
2022-10-08T04:11:14.368Z,71.42
2022-10-08T04:13:41.476Z,70.83
2022-10-08T04:16:11.793Z,71.56
2022-10-08T04:18:39.017Z,70.56
2022-10-08T04:21:08.043Z,70.19
2022-10-08T04:23:36.444Z,70.24
2022-10-08T04:26:03.368Z,71.35
2022-10-08T04:28:31.488Z,70.66
2022-10-08T04:31:05.494Z,69.20
2022-10-08T04:33:34.397Z,69.49
2022-10-08T04:36:01.322Z,69.24
2022-10-08T04:38:28.839Z,69.97
2022-10-08T04:41:09.836Z,69.95
2022-10-08T04:43:37.838Z,69.29
2022-10-08T04:46:04.999Z,68.92
2022-10-08T04:48:32.064Z,69.11
2022-10-08T04:51:00.648Z,69.68
2022-10-08T04:53:27.507Z,69.41
2022-10-08T04:55:55.264Z,68.00
2022-10-08T04:58:23.056Z,68.88
2022-10-08T05:00:49.511Z,69.21
2022-10-08T05:03:15.915Z,69.00
2022-10-08T05:05:43.794Z,69.29
2022-10-08T05:08:10.420Z,69.88
2022-10-08T05:10:37.326Z,69.61
2022-10-08T05:13:03.965Z,69.38
2022-10-08T05:15:30.848Z,68.91
2022-10-08T05:17:57.237Z,69.21
2022-10-08T05:20:23.604Z,68.85
2022-10-08T05:22:50.182Z,69.32
2022-10-08T05:25:16.839Z,69.59
2022-10-08T05:27:43.274Z,69.65
2022-10-08T05:30:10.267Z,68.31
2022-10-08T05:32:36.634Z,69.12
2022-10-08T05:35:03.052Z,70.19
2022-10-08T05:37:29.495Z,68.89
2022-10-08T05:39:55.879Z,69.46
2022-10-08T05:42:22.196Z,69.10
2022-10-08T05:44:48.513Z,70.34
2022-10-08T05:47:14.861Z,69.24
2022-10-08T05:49:41.211Z,71.28
2022-10-08T05:52:07.536Z,70.08
2022-10-08T05:54:33.897Z,69.68
2022-10-08T05:57:00.207Z,70.29
2022-10-08T05:59:26.543Z,71.02
2022-10-08T06:01:53.076Z,71.53
2022-10-08T06:04:19.661Z,71.82
2022-10-08T06:06:46.045Z,71.50
2022-10-08T06:09:14.902Z,72.81
2022-10-08T06:11:42.485Z,74.34
2022-10-08T06:14:11.759Z,74.67
2022-10-08T06:16:38.533Z,75.86
2022-10-08T06:19:06.214Z,76.91
2022-10-08T06:21:32.900Z,77.48
2022-10-08T06:24:01.659Z,78.52
2022-10-08T06:26:35.688Z,78.68
2022-10-08T06:29:06.713Z,79.28
2022-10-08T06:31:34.837Z,80.55
2022-10-08T06:34:04.038Z,81.13
2022-10-08T06:36:31.314Z,81.68
2022-10-08T06:39:03.969Z,82.53
2022-10-08T06:41:30.497Z,83.67
2022-10-08T06:43:56.901Z,83.65
2022-10-08T06:46:23.249Z,83.92
2022-10-08T06:48:49.647Z,84.43
2022-10-08T06:51:17.768Z,85.31
2022-10-08T06:53:45.129Z,85.60
2022-10-08T06:56:17.889Z,86.54
2022-10-08T06:58:45.010Z,82.12
2022-10-08T07:01:17.113Z,84.96
2022-10-08T07:03:43.909Z,86.40
2022-10-08T07:06:12.656Z,85.06
2022-10-08T07:08:39.424Z,86.87
2022-10-08T07:11:11.975Z,86.10
2022-10-08T07:13:39.496Z,84.38
2022-10-08T07:16:21.524Z,84.31
2022-10-08T07:18:50.297Z,85.01
2022-10-08T07:21:18.037Z,86.04
2022-10-08T07:23:44.633Z,84.09
2022-10-08T07:26:20.062Z,84.74
2022-10-08T07:28:53.133Z,84.34
2022-10-08T07:31:22.484Z,84.15
2022-10-08T07:33:49.389Z,83.09
2022-10-08T07:36:18.667Z,82.73
2022-10-08T07:38:45.574Z,83.51
2022-10-08T07:41:12.642Z,83.10
2022-10-08T07:43:43.191Z,82.69
2022-10-08T07:46:11.750Z,83.69
2022-10-08T07:48:38.762Z,82.92
2022-10-08T07:51:13.227Z,82.09
2022-10-08T07:53:40.339Z,81.78
2022-10-08T07:56:08.156Z,80.89
2022-10-08T07:58:35.177Z,81.20
2022-10-08T08:01:03.446Z,81.19
2022-10-08T08:03:30.207Z,80.58
2022-10-08T08:06:09.373Z,81.32
2022-10-08T08:08:37.877Z,80.52
2022-10-08T08:11:05.837Z,79.51
2022-10-08T08:13:36.939Z,81.00
2022-10-08T08:16:09.549Z,79.72
2022-10-08T08:18:38.724Z,79.71
2022-10-08T08:21:13.310Z,79.49
2022-10-08T08:23:45.907Z,79.13
2022-10-08T08:26:15.294Z,78.88
2022-10-08T08:28:42.057Z,78.63
2022-10-08T08:31:14.215Z,78.71
2022-10-08T08:33:41.452Z,78.08
2022-10-08T08:36:07.992Z,78.42
2022-10-08T08:38:38.023Z,78.13
2022-10-08T08:41:22.900Z,78.59
2022-10-08T08:43:58.063Z,78.07
2022-10-08T08:46:25.842Z,78.18
2022-10-08T08:48:56.254Z,78.20
2022-10-08T08:51:22.725Z,77.94
2022-10-08T08:53:49.089Z,77.60
2022-10-08T08:56:19.492Z,77.66
2022-10-08T08:59:04.906Z,77.57
2022-10-08T09:01:42.151Z,77.98
2022-10-08T09:04:36.044Z,77.64
2022-10-08T09:07:08.416Z,77.48
2022-10-08T09:09:42.842Z,76.83
2022-10-08T09:12:22.925Z,75.51
2022-10-08T09:14:56.480Z,75.36
2022-10-08T09:17:35.384Z,75.75
2022-10-08T09:20:02.065Z,75.43
2022-10-08T09:22:31.414Z,75.38
2022-10-08T09:25:06.440Z,74.16
2022-10-08T09:27:47.415Z,75.48
2022-10-08T09:30:34.465Z,74.67
2022-10-08T09:33:05.681Z,74.61
2022-10-08T09:35:34.692Z,74.61
2022-10-08T09:38:05.702Z,73.92
2022-10-08T09:40:32.610Z,73.66
2022-10-08T09:43:17.498Z,74.90
2022-10-08T09:45:49.070Z,74.88
2022-10-08T09:48:24.463Z,74.60
2022-10-08T09:50:54.804Z,73.37
2022-10-08T09:53:23.774Z,73.92
2022-10-08T09:56:01.870Z,74.09
2022-10-08T09:58:32.201Z,75.14
2022-10-08T10:01:06.508Z,74.40
2022-10-08T10:03:35.041Z,75.31
2022-10-08T10:06:01.939Z,74.17
2022-10-08T10:09:02.290Z,74.06
2022-10-08T10:11:35.292Z,74.21
2022-10-08T10:14:09.186Z,74.29
2022-10-08T10:16:41.190Z,74.68
2022-10-08T10:19:18.722Z,75.69
2022-10-08T10:21:54.622Z,75.46
2022-10-08T10:25:05.755Z,75.55
2022-10-08T10:27:40.973Z,74.89
2022-10-08T10:30:18.125Z,74.94
2022-10-08T10:33:10.545Z,75.04
2022-10-08T10:35:45.820Z,75.58
2022-10-08T10:38:28.263Z,75.40
2022-10-08T10:41:26.142Z,74.73
2022-10-08T10:43:57.664Z,74.91
2022-10-08T10:46:44.004Z,75.39
2022-10-08T10:49:17.349Z,75.70
2022-10-08T10:52:02.270Z,74.85
2022-10-08T10:55:11.633Z,75.68
2022-10-08T10:58:16.359Z,75.92
2022-10-08T11:01:01.230Z,76.01
2022-10-08T11:03:52.285Z,75.35
2022-10-08T11:06:37.708Z,75.49
2022-10-08T11:09:27.257Z,75.12
2022-10-08T11:12:04.244Z,74.16
2022-10-08T11:14:50.763Z,73.96
2022-10-08T11:17:32.762Z,74.76
2022-10-08T11:20:26.864Z,74.20
2022-10-08T11:23:03.004Z,74.29
2022-10-08T11:26:20.434Z,73.07
2022-10-08T11:29:01.306Z,73.89
2022-10-08T11:31:54.266Z,74.12
2022-10-08T11:34:26.866Z,73.86
2022-10-08T11:37:11.991Z,73.10
2022-10-08T11:40:08.184Z,73.63
2022-10-08T11:42:46.202Z,74.70
2022-10-08T11:45:23.114Z,74.85
2022-10-08T11:47:53.139Z,74.83
2022-10-08T11:50:22.646Z,74.43
2022-10-08T11:52:50.305Z,74.55
2022-10-08T11:55:26.906Z,74.17
2022-10-08T11:58:08.532Z,73.73
2022-10-08T12:00:45.095Z,72.67
2022-10-08T12:03:30.405Z,73.54
2022-10-08T12:05:59.896Z,73.38
2022-10-08T12:08:50.433Z,72.55
2022-10-08T12:11:32.182Z,72.44
2022-10-08T12:14:10.685Z,72.01
2022-10-08T12:16:55.517Z,72.94
2022-10-08T12:19:34.058Z,72.50
2022-10-08T12:22:02.062Z,71.86
2022-10-08T12:24:37.671Z,71.74
2022-10-08T12:27:27.516Z,71.86
2022-10-08T12:30:11.937Z,72.09
2022-10-08T12:32:41.372Z,70.80
2022-10-08T12:35:26.195Z,71.44
2022-10-08T12:38:21.771Z,71.66
2022-10-08T12:40:59.502Z,70.40
2022-10-08T12:43:43.092Z,70.66
2022-10-08T12:46:24.547Z,69.93
2022-10-08T12:49:01.689Z,69.74
2022-10-08T12:51:44.437Z,70.26
2022-10-08T12:54:20.096Z,71.25
2022-10-08T12:56:47.693Z,70.59
2022-10-08T12:59:14.653Z,70.20
2022-10-08T13:01:43.751Z,71.08
2022-10-08T13:04:20.658Z,69.83
2022-10-08T13:06:50.722Z,70.48
2022-10-08T13:09:33.051Z,70.25
2022-10-08T13:12:10.551Z,68.74
2022-10-08T13:14:39.354Z,69.13
2022-10-08T13:17:06.322Z,69.94
2022-10-08T13:19:32.623Z,67.69
2022-10-08T13:22:05.069Z,68.85
2022-10-08T13:24:37.853Z,66.72
2022-10-08T13:27:04.663Z,66.56
2022-10-08T13:29:36.369Z,66.26
2022-10-08T13:32:11.537Z,65.15
2022-10-08T13:34:41.037Z,65.83
2022-10-08T13:37:20.995Z,66.28
2022-10-08T13:39:53.670Z,65.84
2022-10-08T13:42:23.380Z,64.99
2022-10-08T13:44:49.945Z,64.98
2022-10-08T13:47:18.854Z,65.63
2022-10-08T13:49:45.823Z,65.11
2022-10-08T13:52:18.465Z,65.67
2022-10-08T13:54:45.030Z,64.71
2022-10-08T13:57:12.138Z,66.24
2022-10-08T13:59:38.577Z,65.17
2022-10-08T14:02:05.774Z,65.79
2022-10-08T14:04:32.179Z,64.17
2022-10-08T14:07:00.542Z,66.04
2022-10-08T14:09:28.760Z,66.34
2022-10-08T14:11:56.854Z,64.83
2022-10-08T14:14:24.139Z,66.52
2022-10-08T14:16:51.405Z,65.99
2022-10-08T14:19:18.536Z,63.26
2022-10-08T14:21:44.951Z,63.33
2022-10-08T14:24:12.706Z,63.45
2022-10-08T14:26:39.140Z,64.95
2022-10-08T14:29:05.612Z,64.25
2022-10-08T14:31:32.208Z,67.57
2022-10-08T14:33:58.651Z,68.85
2022-10-08T14:36:33.214Z,69.75
2022-10-08T14:38:59.871Z,70.93
2022-10-08T14:41:26.472Z,71.28
2022-10-08T14:43:52.805Z,71.55
2022-10-08T14:46:19.350Z,72.23
2022-10-08T14:48:45.667Z,74.14
2022-10-08T14:51:12.509Z,75.28
2022-10-08T14:53:39.590Z,75.45
2022-10-08T14:56:12.508Z,75.74
2022-10-08T14:58:39.349Z,75.99
2022-10-08T15:01:06.103Z,77.09
2022-10-08T15:03:32.633Z,75.83
2022-10-08T15:06:00.120Z,75.96
2022-10-08T15:08:27.646Z,75.99
2022-10-08T15:10:54.138Z,77.30
2022-10-08T15:13:20.582Z,76.85
2022-10-08T15:15:46.915Z,77.40
2022-10-08T15:18:13.358Z,77.39
2022-10-08T15:20:39.868Z,77.34
2022-10-08T15:23:07.443Z,77.04
2022-10-08T15:25:33.961Z,77.05
2022-10-08T15:28:00.483Z,76.79
2022-10-08T15:30:26.931Z,77.81
2022-10-08T15:32:53.693Z,77.79
2022-10-08T15:35:20.173Z,77.23
2022-10-08T15:37:47.062Z,78.00
2022-10-08T15:40:14.005Z,77.16
2022-10-08T15:42:40.422Z,78.88
2022-10-08T15:45:07.164Z,78.01
2022-10-08T15:47:33.575Z,77.72
2022-10-08T15:50:00.155Z,77.98
2022-10-08T15:52:26.558Z,78.40
2022-10-08T15:54:52.996Z,78.39
2022-10-08T15:57:19.483Z,78.22
2022-10-08T15:59:45.950Z,78.38
2022-10-08T16:02:17.084Z,79.39
2022-10-08T16:04:46.707Z,79.75
2022-10-08T16:07:13.096Z,80.55
2022-10-08T16:09:39.510Z,80.20
2022-10-08T16:12:06.426Z,80.87
2022-10-08T16:14:32.988Z,79.82
2022-10-08T16:16:59.421Z,79.71
2022-10-08T16:19:27.170Z,79.99
2022-10-08T16:21:56.237Z,79.64
2022-10-08T16:24:23.700Z,80.29
2022-10-08T16:26:50.371Z,80.18
2022-10-08T16:29:18.366Z,80.70
2022-10-08T16:31:45.968Z,80.96
2022-10-08T16:34:16.006Z,80.42
2022-10-08T16:36:42.541Z,80.63
2022-10-08T16:39:11.551Z,81.00
2022-10-08T16:41:38.037Z,79.98
2022-10-08T16:44:12.758Z,79.77
2022-10-08T16:46:43.242Z,80.40
2022-10-08T16:49:26.627Z,80.33
2022-10-08T16:52:01.712Z,80.10
2022-10-08T16:54:28.616Z,81.01
2022-10-08T16:56:55.752Z,81.36
2022-10-08T16:59:24.862Z,81.13
2022-10-08T17:01:54.155Z,80.63
2022-10-08T17:04:22.295Z,80.96
2022-10-08T17:06:48.987Z,80.57
2022-10-08T17:09:15.487Z,80.03
2022-10-08T17:11:42.193Z,80.78
2022-10-08T17:14:10.166Z,80.04
2022-10-08T17:16:36.889Z,79.93
2022-10-08T17:19:03.870Z,79.52
2022-10-08T17:21:31.414Z,79.42
2022-10-08T17:23:58.881Z,79.25
2022-10-08T17:26:27.663Z,78.67
2022-10-08T17:28:54.882Z,78.33
2022-10-08T17:31:24.546Z,78.62
2022-10-08T17:33:50.999Z,78.09
2022-10-08T17:36:22.913Z,78.01
2022-10-08T17:38:52.656Z,77.94
2022-10-08T17:41:22.281Z,78.23
2022-10-08T17:43:50.192Z,78.18
2022-10-08T17:46:19.096Z,78.42
2022-10-08T17:48:46.445Z,78.18
2022-10-08T17:51:15.844Z,77.83
2022-10-08T17:53:43.536Z,78.59
2022-10-08T17:56:12.234Z,79.91
2022-10-08T17:58:39.483Z,79.70
2022-10-08T18:01:18.034Z,80.02
2022-10-08T18:03:50.565Z,80.24
2022-10-08T18:06:17.695Z,80.57
2022-10-08T18:08:44.089Z,79.38
2022-10-08T18:11:13.054Z,79.93
2022-10-08T18:13:39.444Z,80.54
2022-10-08T18:16:16.993Z,80.03
2022-10-08T18:18:44.507Z,80.30
2022-10-08T18:21:16.263Z,80.40
2022-10-08T18:23:43.006Z,80.62
2022-10-08T18:26:24.426Z,80.76
2022-10-08T18:28:53.382Z,80.46
2022-10-08T18:31:21.459Z,79.41
2022-10-08T18:33:50.066Z,80.58
2022-10-08T18:36:19.200Z,79.42
2022-10-08T18:38:47.855Z,79.56
2022-10-08T18:41:20.137Z,78.72
2022-10-08T18:43:48.005Z,79.78
2022-10-08T18:46:16.275Z,79.02
2022-10-08T18:48:43.252Z,80.13
2022-10-08T18:51:13.377Z,79.24
2022-10-08T18:53:41.534Z,78.92
2022-10-08T18:56:10.815Z,79.04
2022-10-08T18:58:38.255Z,79.72
2022-10-08T19:01:06.056Z,79.55
2022-10-08T19:03:32.966Z,79.01
2022-10-08T19:05:59.338Z,78.30
2022-10-08T19:08:25.791Z,78.36
2022-10-08T19:10:52.547Z,77.38
2022-10-08T19:13:19.858Z,77.75
2022-10-08T19:15:46.430Z,76.08
2022-10-08T19:18:12.848Z,76.74
2022-10-08T19:20:39.240Z,75.65
2022-10-08T19:23:06.148Z,75.42
2022-10-08T19:25:34.877Z,75.80
2022-10-08T19:28:01.357Z,75.30
2022-10-08T19:30:32.932Z,75.30
2022-10-08T19:32:59.532Z,75.56
2022-10-08T19:35:25.908Z,75.37
2022-10-08T19:37:52.294Z,75.61
2022-10-08T19:40:18.686Z,75.37
2022-10-08T19:42:45.050Z,75.68
2022-10-08T19:45:12.495Z,75.57
2022-10-08T19:47:38.901Z,75.71
2022-10-08T19:50:05.845Z,75.54
2022-10-08T19:52:32.222Z,75.20
2022-10-08T19:54:58.602Z,75.94
2022-10-08T19:57:24.966Z,76.47
2022-10-08T19:59:51.366Z,76.03
2022-10-08T20:02:17.925Z,76.78
2022-10-08T20:04:46.000Z,76.93
2022-10-08T20:07:12.638Z,76.71
2022-10-08T20:09:39.005Z,76.04
2022-10-08T20:12:05.451Z,77.36
2022-10-08T20:14:31.916Z,75.98
2022-10-08T20:16:58.355Z,77.12
2022-10-08T20:19:24.721Z,77.40
2022-10-08T20:21:53.422Z,78.32
2022-10-08T20:24:19.955Z,77.07
2022-10-08T20:26:46.477Z,78.74
2022-10-08T20:29:18.388Z,76.82
2022-10-08T20:31:49.359Z,78.05
2022-10-08T20:34:18.545Z,78.38
2022-10-08T20:36:46.179Z,77.02
2022-10-08T20:39:14.043Z,78.86
2022-10-08T20:41:41.495Z,77.49
2022-10-08T20:44:08.030Z,77.10
2022-10-08T20:46:35.518Z,77.25
2022-10-08T20:49:02.676Z,77.01
2022-10-08T20:51:29.817Z,76.14
2022-10-08T20:54:03.282Z,77.04
2022-10-08T20:56:34.700Z,77.72
2022-10-08T20:59:04.161Z,77.31
2022-10-08T21:01:32.890Z,77.14
2022-10-08T21:04:03.166Z,78.03
2022-10-08T21:06:32.081Z,78.89
2022-10-08T21:08:59.254Z,76.86
2022-10-08T21:11:28.400Z,77.53
2022-10-08T21:13:55.720Z,76.63
2022-10-08T21:16:25.109Z,75.99
2022-10-08T21:18:53.840Z,76.97
2022-10-08T21:21:20.637Z,75.62
2022-10-08T21:23:48.914Z,76.11
2022-10-08T21:26:15.223Z,76.13
2022-10-08T21:28:44.133Z,75.95
2022-10-08T21:31:11.654Z,76.57
2022-10-08T21:33:39.735Z,77.30
2022-10-08T21:36:09.027Z,76.23
2022-10-08T21:38:35.341Z,76.76
2022-10-08T21:41:13.771Z,75.88
2022-10-08T21:43:42.341Z,76.78
2022-10-08T21:46:10.810Z,76.18
2022-10-08T21:48:37.553Z,76.71
2022-10-08T21:51:07.660Z,76.54
2022-10-08T21:53:35.910Z,77.52
2022-10-08T21:56:05.236Z,77.49
2022-10-08T21:58:36.482Z,76.85
2022-10-08T22:01:03.005Z,78.34
2022-10-08T22:03:29.420Z,77.68
2022-10-08T22:05:59.256Z,77.84
2022-10-08T22:08:27.957Z,77.72
2022-10-08T22:10:55.436Z,78.02
2022-10-08T22:13:22.341Z,79.76
2022-10-08T22:15:59.557Z,77.79
2022-10-08T22:18:31.262Z,79.48
2022-10-08T22:21:00.756Z,77.38
2022-10-08T22:23:27.074Z,76.36
2022-10-08T22:26:00.531Z,76.84
2022-10-08T22:28:27.965Z,75.50
2022-10-08T22:30:54.871Z,76.54
2022-10-08T22:33:21.621Z,76.07
2022-10-08T22:35:47.978Z,74.87
2022-10-08T22:38:14.381Z,76.88
2022-10-08T22:40:40.849Z,76.18
2022-10-08T22:43:07.412Z,78.35
2022-10-08T22:45:39.503Z,78.44
2022-10-08T22:48:05.983Z,77.81
2022-10-08T22:50:36.229Z,77.64
2022-10-08T22:53:03.290Z,77.33
2022-10-08T22:55:29.683Z,77.41
2022-10-08T22:57:56.926Z,76.71
2022-10-08T23:00:23.337Z,78.84
2022-10-08T23:02:50.247Z,78.65
2022-10-08T23:05:17.127Z,77.14
2022-10-08T23:07:43.449Z,77.30
2022-10-08T23:10:09.790Z,77.69
2022-10-08T23:12:36.090Z,79.10
2022-10-08T23:15:02.454Z,79.68
2022-10-08T23:17:28.813Z,79.16
2022-10-08T23:19:55.151Z,79.70
2022-10-08T23:22:21.458Z,78.99
2022-10-08T23:24:47.896Z,77.57
2022-10-08T23:27:14.323Z,78.16
2022-10-08T23:29:40.757Z,78.70
2022-10-08T23:32:07.176Z,78.35
2022-10-08T23:34:33.548Z,77.18
2022-10-08T23:36:59.888Z,77.44
2022-10-08T23:39:26.245Z,76.44
2022-10-08T23:41:52.570Z,76.13
2022-10-08T23:44:18.895Z,75.10
2022-10-08T23:46:45.233Z,74.31
2022-10-08T23:49:11.562Z,74.18
2022-10-08T23:51:37.950Z,76.12
2022-10-08T23:54:04.439Z,74.58
2022-10-08T23:56:31.079Z,75.81
2022-10-08T23:58:58.652Z,74.54
